sensor_id;sensor_type;location;lat;lon;timestamp;P1;durP1;ratioP1;P2;durP2;ratioP2
73104;SDS011;61296;50.526;30.792;2022-09-14T00:02:01;18.27;;;9.13;;
73104;SDS011;61296;50.526;30.792;2022-09-14T00:17:21;17.13;;;9.75;;
73104;SDS011;61296;50.526;30.792;2022-09-14T00:32:40;16.70;;;9.35;;
73104;SDS011;61296;50.526;30.792;2022-09-14T00:47:59;12.18;;;7.93;;
73104;SDS011;61296;50.526;30.792;2022-09-14T01:03:19;14.02;;;8.20;;
73104;SDS011;61296;50.526;30.792;2022-09-14T01:34:10;16.35;;;9.50;;
73104;SDS011;61296;50.526;30.792;2022-09-14T01:49:41;16.77;;;10.43;;
73104;SDS011;61296;50.526;30.792;2022-09-14T02:21:26;20.30;;;10.40;;
73104;SDS011;61296;50.526;30.792;2022-09-14T02:36:58;15.27;;;9.40;;
73104;SDS011;61296;50.526;30.792;2022-09-14T02:52:38;14.07;;;8.75;;
73104;SDS011;61296;50.526;30.792;2022-09-14T03:08:02;13.20;;;8.85;;
73104;SDS011;61296;50.526;30.792;2022-09-14T03:23:21;11.85;;;8.43;;
73104;SDS011;61296;50.526;30.792;2022-09-14T03:38:41;13.43;;;7.22;;
73104;SDS011;61296;50.526;30.792;2022-09-14T03:54:02;9.77;;;7.15;;
73104;SDS011;61296;50.526;30.792;2022-09-14T04:09:22;9.10;;;6.55;;
73104;SDS011;61296;50.526;30.792;2022-09-14T04:24:42;10.32;;;7.13;;
73104;SDS011;61296;50.526;30.792;2022-09-14T04:40:03;13.35;;;6.45;;
73104;SDS011;61296;50.526;30.792;2022-09-14T04:55:23;7.43;;;5.55;;
73104;SDS011;61296;50.526;30.792;2022-09-14T05:10:43;6.47;;;5.15;;
73104;SDS011;61296;50.526;30.792;2022-09-14T05:26:03;8.77;;;5.45;;
73104;SDS011;61296;50.526;30.792;2022-09-14T05:41:23;6.80;;;4.80;;
73104;SDS011;61296;50.526;30.792;2022-09-14T05:56:43;6.10;;;4.90;;
73104;SDS011;61296;50.526;30.792;2022-09-14T06:12:02;6.95;;;5.18;;
73104;SDS011;61296;50.526;30.792;2022-09-14T06:27:22;7.72;;;5.47;;
73104;SDS011;61296;50.526;30.792;2022-09-14T06:42:41;8.20;;;5.13;;
73104;SDS011;61296;50.526;30.792;2022-09-14T06:58:02;5.15;;;4.15;;
73104;SDS011;61296;50.526;30.792;2022-09-14T07:13:23;8.25;;;4.68;;
73104;SDS011;61296;50.526;30.792;2022-09-14T07:28:44;5.32;;;3.67;;
73104;SDS011;61296;50.526;30.792;2022-09-14T07:44:06;5.70;;;3.40;;
73104;SDS011;61296;50.526;30.792;2022-09-14T07:59:26;4.15;;;3.63;;
73104;SDS011;61296;50.526;30.792;2022-09-14T08:14:46;4.57;;;2.50;;
73104;SDS011;61296;50.526;30.792;2022-09-14T08:30:05;5.95;;;2.90;;
73104;SDS011;61296;50.526;30.792;2022-09-14T08:45:26;4.00;;;3.35;;
73104;SDS011;61296;50.526;30.792;2022-09-14T09:00:52;8.88;;;3.53;;
73104;SDS011;61296;50.526;30.792;2022-09-14T09:16:18;8.15;;;3.78;;
73104;SDS011;61296;50.526;30.792;2022-09-14T09:31:45;7.15;;;3.40;;
73104;SDS011;61296;50.526;30.792;2022-09-14T09:47:39;5.50;;;2.88;;
73104;SDS011;61296;50.526;30.792;2022-09-14T10:03:00;8.00;;;3.17;;
73104;SDS011;61296;50.526;30.792;2022-09-14T10:18:46;5.22;;;3.13;;
73104;SDS011;61296;50.526;30.792;2022-09-14T10:34:10;6.35;;;3.58;;
73104;SDS011;61296;50.526;30.792;2022-09-14T10:49:40;10.48;;;6.25;;
73104;SDS011;61296;50.526;30.792;2022-09-14T11:05:33;11.05;;;8.30;;
73104;SDS011;61296;50.526;30.792;2022-09-14T11:36:36;7.22;;;5.70;;
73104;SDS011;61296;50.526;30.792;2022-09-14T11:52:21;6.45;;;5.35;;
73104;SDS011;61296;50.526;30.792;2022-09-14T12:23:06;10.15;;;7.00;;
73104;SDS011;61296;50.526;30.792;2022-09-14T12:54:15;8.17;;;7.27;;
73104;SDS011;61296;50.526;30.792;2022-09-14T13:09:59;8.23;;;7.30;;
73104;SDS011;61296;50.526;30.792;2022-09-14T13:41:09;16.57;;;11.03;;
73104;SDS011;61296;50.526;30.792;2022-09-14T13:56:36;15.73;;;10.93;;
73104;SDS011;61296;50.526;30.792;2022-09-14T14:11:56;17.33;;;12.95;;
73104;SDS011;61296;50.526;30.792;2022-09-14T14:27:38;20.42;;;15.18;;
73104;SDS011;61296;50.526;30.792;2022-09-14T14:43:01;24.75;;;18.13;;
73104;SDS011;61296;50.526;30.792;2022-09-14T14:58:22;23.38;;;17.73;;
73104;SDS011;61296;50.526;30.792;2022-09-14T15:13:45;25.05;;;17.17;;
73104;SDS011;61296;50.526;30.792;2022-09-14T15:29:05;21.92;;;16.52;;
73104;SDS011;61296;50.526;30.792;2022-09-14T15:44:24;20.20;;;15.23;;
73104;SDS011;61296;50.526;30.792;2022-09-14T15:59:44;23.38;;;16.13;;
73104;SDS011;61296;50.526;30.792;2022-09-14T16:15:03;18.55;;;13.88;;
73104;SDS011;61296;50.526;30.792;2022-09-14T16:30:23;28.98;;;19.52;;
73104;SDS011;61296;50.526;30.792;2022-09-14T16:45:42;31.58;;;21.67;;
73104;SDS011;61296;50.526;30.792;2022-09-14T17:16:34;42.65;;;27.92;;
73104;SDS011;61296;50.526;30.792;2022-09-14T17:31:54;41.58;;;26.92;;
73104;SDS011;61296;50.526;30.792;2022-09-14T17:47:13;35.35;;;24.02;;
73104;SDS011;61296;50.526;30.792;2022-09-14T18:02:34;43.17;;;28.02;;
73104;SDS011;61296;50.526;30.792;2022-09-14T18:17:53;35.58;;;23.30;;
73104;SDS011;61296;50.526;30.792;2022-09-14T18:33:13;33.45;;;23.42;;
73104;SDS011;61296;50.526;30.792;2022-09-14T18:48:32;53.55;;;34.15;;
73104;SDS011;61296;50.526;30.792;2022-09-14T19:03:52;45.97;;;28.77;;
73104;SDS011;61296;50.526;30.792;2022-09-14T19:19:13;36.58;;;24.13;;
73104;SDS011;61296;50.526;30.792;2022-09-14T19:34:33;35.65;;;24.75;;
73104;SDS011;61296;50.526;30.792;2022-09-14T19:49:53;43.55;;;26.13;;
73104;SDS011;61296;50.526;30.792;2022-09-14T20:05:12;35.00;;;23.55;;
73104;SDS011;61296;50.526;30.792;2022-09-14T20:20:36;36.88;;;23.88;;
73104;SDS011;61296;50.526;30.792;2022-09-14T20:35:58;35.55;;;22.42;;
73104;SDS011;61296;50.526;30.792;2022-09-14T20:51:19;41.03;;;27.48;;
73104;SDS011;61296;50.526;30.792;2022-09-14T21:06:40;37.47;;;25.35;;
73104;SDS011;61296;50.526;30.792;2022-09-14T21:22:02;35.38;;;24.38;;
73104;SDS011;61296;50.526;30.792;2022-09-14T21:37:23;29.33;;;20.88;;
73104;SDS011;61296;50.526;30.792;2022-09-14T21:52:44;31.10;;;20.23;;
73104;SDS011;61296;50.526;30.792;2022-09-14T22:08:06;28.52;;;18.60;;
73104;SDS011;61296;50.526;30.792;2022-09-14T22:23:26;33.70;;;22.77;;
73104;SDS011;61296;50.526;30.792;2022-09-14T22:38:45;26.23;;;17.83;;
73104;SDS011;61296;50.526;30.792;2022-09-14T22:54:05;25.08;;;17.30;;
73104;SDS011;61296;50.526;30.792;2022-09-14T23:09:25;25.80;;;18.95;;
73104;SDS011;61296;50.526;30.792;2022-09-14T23:24:44;26.88;;;19.90;;
73104;SDS011;61296;50.526;30.792;2022-09-14T23:40:04;30.35;;;18.63;;
73104;SDS011;61296;50.526;30.792;2022-09-14T23:55:25;24.25;;;18.10;;
